Flight Track Log - Related Links

Times and Time Zones

All times are in EDT time to prevent confusion due to time zone crossing. See the UAL4336 flight status page for this flight to view local times or setup timezone preferences in your user account.

Time Position Orientation Groundspeed Altitude Reporting Facility
EDT Latitude Longitude Course Direction KTS MPH feet Rate Location/Type
Mon 06:21:25 AM 40.0011 -82.8692 270° West 179 206 1,200  Level Indianapolis Center
Mon 06:22:32 AM 40.0006 -82.7847 90° East 227 261 3,400 1,937 Climbing Indianapolis Center
Mon 06:23:32 AM 40.0389 -82.7428 40° Northeast 253 291 5,300 1,956 Climbing Indianapolis Center
Mon 06:24:00 AM 40.0000 -83.2962 270° West  Level FlightAware Approximate
Mon 06:24:47 AM 40.0531 -82.8369 281° West 255 293 7,800  Level Indianapolis Center
Mon 06:25:00 AM 40.0000 -83.4346 270° West  Level FlightAware Approximate
Mon 06:25:47 AM 40.0578 -82.9317 274° West 260 299 10,000  Level Indianapolis Center
Mon 06:26:00 AM 40.0000 -83.5730 270° West  Level FlightAware Approximate
Mon 06:26:48 AM 40.0542 -83.0442 268° West 309 356 10,700  Level Indianapolis Center
Mon 06:27:49 AM 40.0078 -83.1550 241° Southwest 345 397 12,200 1,488 Climbing Indianapolis Center
Mon 06:28:49 AM 39.9594 -83.2703 241° Southwest 358 412 13,700 1,587 Climbing Indianapolis Center
Mon 06:29:50 AM 39.9017 -83.4081 241° Southwest 369 425 15,400 1,537 Climbing Indianapolis Center
Mon 06:30:50 AM 39.8619 -83.5181 245° Southwest 374 430 16,800 1,438 Climbing Indianapolis Center
Mon 06:31:51 AM 39.8186 -83.6561 248° West 384 442 18,300 1,426 Climbing Indianapolis Center
Mon 06:32:52 AM 39.7686 -83.7769 242° Southwest 380 437 19,700 1,240 Climbing Indianapolis Center
Mon 06:33:52 AM 39.7153 -83.8994 241° Southwest 384 442 20,800 992 Climbing Indianapolis Center
Mon 06:34:53 AM 39.6592 -84.0275 240° Southwest 402 463 21,700 934 Climbing Indianapolis Center
Mon 06:35:54 AM 39.6028 -84.1561 240° Southwest 406 467 22,700 992 Climbing Indianapolis Center
Mon 06:36:54 AM 39.5461 -84.2878 241° Southwest 415 478 23,700 992 Climbing Indianapolis Center
Mon 06:37:55 AM 39.4875 -84.4189 240° Southwest 417 480 24,700 934 Climbing Indianapolis Center
Mon 06:38:56 AM 39.4286 -84.5506 240° Southwest 419 482 25,600 934 Climbing Indianapolis Center
Mon 06:39:57 AM 39.3711 -84.6814 240° Southwest 416 479 26,600 992 Climbing Indianapolis Center
Mon 06:40:57 AM 39.3128 -84.8111 240° Southwest 414 476 27,600 992 Climbing Indianapolis Center
Mon 06:41:58 AM 39.2581 -84.9333 240° Southwest 411 473 28,600 934 Climbing Indianapolis Center
Mon 06:42:59 AM 39.2014 -85.0603 240° Southwest 408 470 29,500 934 Climbing Indianapolis Center
Mon 06:44:00 AM 39.1442 -85.1869 240° Southwest 408 470 30,500 942 Climbing Indianapolis Center
Mon 06:45:00 AM 39.0858 -85.3133 239° Southwest 409 471 31,400 942 Climbing Indianapolis Center
Mon 06:46:01 AM 39.0283 -85.4422 240° Southwest 413 475 32,400 984 Climbing Indianapolis Center
Mon 06:47:02 AM 38.9686 -85.5694 239° Southwest 415 478 33,400 934 Climbing Indianapolis Center
Mon 06:48:03 AM 38.9106 -85.6992 240° Southwest 418 481 34,300 1,033 Climbing Indianapolis Center
Mon 06:49:04 AM 38.8397 -85.8494 239° Southwest 412 474 35,500 836 Climbing Indianapolis Center
Mon 06:50:05 AM 38.7817 -85.9753 239° Southwest 408 470 36,000 246 Climbing Indianapolis Center
Mon 06:51:06 AM 38.7225 -86.1044 240° Southwest 414 476 36,000  Level Indianapolis Center
Mon 06:52:06 AM 38.6597 -86.2389 239° Southwest 435 501 36,000  Level Indianapolis Center
Mon 06:53:07 AM 38.5942 -86.3744 238° Southwest 444 511 36,000  Level Indianapolis Center
Mon 06:54:08 AM 38.5200 -86.5081 235° Southwest 457 526 36,000  Level Indianapolis Center
Mon 06:55:09 AM 38.4392 -86.6356 231° Southwest 459 528 36,000  Level Indianapolis Center
Mon 06:56:10 AM 38.3600 -86.7619 231° Southwest 455 524 36,000  Level Indianapolis Center
Mon 06:57:11 AM 38.2797 -86.8886 231° Southwest 452 520 36,000  Level Indianapolis Center
Mon 06:58:12 AM 38.2056 -87.0097 232° Southwest 454 522 36,000  Level Indianapolis Center
Mon 06:59:13 AM 38.1189 -87.1453 231° Southwest 448 516 36,000  Level Indianapolis Center
Mon 07:00:14 AM 38.0417 -87.2681 231° Southwest 442 509 36,000  Level Indianapolis Center
Mon 07:01:15 AM 37.9636 -87.3900 231° Southwest 441 507 36,000  Level Indianapolis Center
Mon 07:02:16 AM 37.8864 -87.5117 231° Southwest 441 507 36,000  Level Indianapolis Center
Mon 07:03:17 AM 37.8086 -87.6336 231° Southwest 443 510 36,000  Level Indianapolis Center
Mon 07:04:17 AM 37.7350 -87.7467 231° Southwest 442 509 36,000  Level Indianapolis Center
Mon 07:05:19 AM 37.6561 -87.8681 231° Southwest 443 510 36,000  Level Indianapolis Center
Mon 07:05:44 AM 37.6186 -87.9381 236° Southwest 452 520 36,000  Level Memphis Center
Mon 07:06:44 AM 37.5375 -88.0581 230° Southwest 452 520 36,000  Level Memphis Center
Mon 07:07:44 AM 37.4628 -88.1806 232° Southwest 452 520 36,000  Level Memphis Center
Mon 07:08:22 AM 37.4197 -88.2319 223° Southwest 443 510 36,000  Level Indianapolis Center
Mon 07:09:23 AM 37.3392 -88.3536 230° Southwest 448 516 36,000  Level Indianapolis Center
Mon 07:09:44 AM 37.3022 -88.4197 235° Southwest 452 520 36,000  Level Memphis Center
Mon 07:10:44 AM 37.2247 -88.5386 231° Southwest 452 520 36,000  Level Memphis Center
Mon 07:11:44 AM 37.1431 -88.6603 230° Southwest 452 520 36,000  Level Memphis Center
Mon 07:12:44 AM 37.0636 -88.7817 231° Southwest 452 520 36,000  Level Memphis Center
Mon 07:13:44 AM 36.9817 -88.9025 230° Southwest 452 520 36,000  Level Memphis Center
Mon 07:14:44 AM 36.9017 -89.0233 230° Southwest 452 520 36,000  Level Memphis Center
Mon 07:15:44 AM 36.8175 -89.1467 230° Southwest 452 520 36,000  Level Memphis Center
Mon 07:16:44 AM 36.7353 -89.2694 230° Southwest 457 526 36,000  Level Memphis Center
Mon 07:17:44 AM 36.6550 -89.3922 231° Southwest 457 526 36,000  Level Memphis Center
Mon 07:18:44 AM 36.5728 -89.5172 231° Southwest 457 526 36,000  Level Memphis Center
Mon 07:19:44 AM 36.4858 -89.6342 227° Southwest 462 532 36,000  Level Memphis Center
Mon 07:20:44 AM 36.4053 -89.7511 229° Southwest 462 532 36,000  Level Memphis Center
Mon 07:21:44 AM 36.3328 -89.8572 230° Southwest 462 532 36,000  Level Memphis Center
Mon 07:22:44 AM 36.2517 -89.9736 229° Southwest 462 532 36,000  Level Memphis Center
Mon 07:23:44 AM 36.1708 -90.0869 229° Southwest 462 532 36,000  Level Memphis Center
Mon 07:24:44 AM 36.0897 -90.2056 230° Southwest 457 526 36,000  Level Memphis Center
Mon 07:25:44 AM 36.0106 -90.3186 229° Southwest 457 526 36,000  Level Memphis Center
Mon 07:26:44 AM 35.9272 -90.4339 228° Southwest 457 526 36,000  Level Memphis Center
Mon 07:27:44 AM 35.8414 -90.5619 230° Southwest 452 520 36,000  Level Memphis Center
Mon 07:28:44 AM 35.7600 -90.6767 229° Southwest 447 514 36,000  Level Memphis Center
Mon 07:29:44 AM 35.6844 -90.7914 231° Southwest 447 514 36,000  Level Memphis Center
Mon 07:30:44 AM 35.6006 -90.9061 228° Southwest 447 514 36,000  Level Memphis Center
Mon 07:31:44 AM 35.5250 -91.0153 230° Southwest 447 514 36,000  Level Memphis Center
Mon 07:32:44 AM 35.4453 -91.1292 229° Southwest 447 514 36,000  Level Memphis Center
Mon 07:33:44 AM 35.3717 -91.2228 226° Southwest 447 514 36,000  Level Memphis Center
Mon 07:34:44 AM 35.2936 -91.3339 229° Southwest 441 507 36,000  Level Memphis Center
Mon 07:35:44 AM 35.2133 -91.4422 228° Southwest 436 502 36,000  Level Memphis Center
Mon 07:36:44 AM 35.1331 -91.5531 228° Southwest 436 502 36,000  Level Memphis Center
Mon 07:37:44 AM 35.0569 -91.6636 230° Southwest 436 502 36,000  Level Memphis Center
Mon 07:38:44 AM 34.9764 -91.7711 228° Southwest 436 502 36,000  Level Memphis Center
Mon 07:39:44 AM 34.8714 -91.8353 207° Southwest 418 481 36,000  Level Memphis Center
Mon 07:40:44 AM 34.7622 -91.8814 199° South 418 481 36,000  Level Memphis Center
Mon 07:41:44 AM 34.6469 -91.9300 199° South 429 494 36,000  Level Memphis Center
Mon 07:42:44 AM 34.5339 -91.9733 198° South 434 499 36,000 -300 Level Memphis Center
Mon 07:43:44 AM 34.4078 -92.0236 198° South 434 499 35,400 -800 Descending Memphis Center
Mon 07:44:44 AM 34.2903 -92.0717 199° South 439 505 34,400 -412 Descending Memphis Center
Mon 07:47:08 AM 34.0122 -92.1844 199° South 443 510 34,000 -118 Descending Fort Worth Center
Mon 07:48:08 AM 33.8931 -92.2292 197° South 443 510 34,000  Level Fort Worth Center
Mon 07:49:08 AM 33.7719 -92.2764 198° South 449 517 34,000  Level Fort Worth Center
Mon 07:50:08 AM 33.6528 -92.3233 198° South 454 522 34,000  Level Fort Worth Center
Mon 07:51:08 AM 33.5317 -92.3700 198° South 454 522 34,000  Level Fort Worth Center
Mon 07:52:08 AM 33.4144 -92.4117 197° South 449 517 34,000  Level Fort Worth Center
Mon 07:53:08 AM 33.2903 -92.4386 190° South 449 517 34,000  Level Fort Worth Center
Mon 07:54:08 AM 33.1636 -92.4606 188° South 455 524 34,000  Level Fort Worth Center
Mon 07:56:18 AM 32.9067 -92.5083 189° South 452 520 34,000  Level Houston Center
Mon 07:57:19 AM 32.7808 -92.5122 181° South 453 521 34,000  Level Houston Center
Mon 07:58:21 AM 32.6536 -92.5067 178° South 457 526 34,000  Level Houston Center
Mon 07:59:22 AM 32.5119 -92.5272 187° South 460 529 34,000  Level Houston Center
Mon 08:00:23 AM 32.3900 -92.5606 193° South 453 521 34,000  Level Houston Center
Mon 08:01:24 AM 32.2667 -92.5947 193° South 454 522 34,000  Level Houston Center
Mon 08:02:25 AM 32.1428 -92.6311 194° South 458 527 34,000  Level Houston Center
Mon 08:03:27 AM 32.0181 -92.6639 193° South 460 529 34,000  Level Houston Center
Mon 08:04:28 AM 31.9117 -92.7378 211° Southwest 448 516 34,000  Level Houston Center
Mon 08:05:29 AM 31.8153 -92.8297 219° Southwest 447 514 34,000  Level Houston Center
Mon 08:06:30 AM 31.7194 -92.9233 220° Southwest 448 516 34,000  Level Houston Center
Mon 08:07:32 AM 31.6039 -93.0342 219° Southwest 449 517 34,000  Level Houston Center
Mon 08:08:33 AM 31.5083 -93.1264 219° Southwest 447 514 34,000  Level Houston Center
Mon 08:09:34 AM 31.4119 -93.2186 219° Southwest 448 516 34,000 -98 Level Houston Center
Mon 08:10:35 AM 31.3142 -93.3119 219° Southwest 439 505 33,800 -829 Descending Houston Center
Mon 08:11:37 AM 31.2242 -93.3981 219° Southwest 436 502 32,300 -1,463 Descending Houston Center
Mon 08:12:38 AM 31.1617 -93.5125 237° Southwest 417 480 30,800 -1,475 Descending Houston Center
Mon 08:13:39 AM 31.0931 -93.6214 234° Southwest 419 482 29,300 -1,415 Descending Houston Center
Mon 08:14:41 AM 30.9981 -93.7036 217° Southwest 425 489 27,900 -1,561 Descending Houston Center
Mon 08:15:42 AM 30.8836 -93.7997 216° Southwest 426 490 26,100 -1,623 Descending Houston Center
Mon 08:16:43 AM 30.7897 -93.8775 215° Southwest 420 483 24,600 -1,463 Descending Houston Center
Mon 08:17:45 AM 30.6997 -93.9531 216° Southwest 408 470 23,100 -1,805 Descending Houston Center
Mon 08:18:46 AM 30.6114 -94.0236 215° Southwest 393 452 20,900 -2,213 Descending Houston Center
Mon 08:19:47 AM 30.5275 -94.0944 216° Southwest 380 437 18,600 -2,357 Descending Houston Center
Mon 08:20:10 AM 30.4836 -94.1281 213° Southwest 370 426 17,600 -1,935 Descending Houston Center
Mon 08:20:49 AM 30.4442 -94.1617 216° Southwest 369 425 16,600 -1,967 Descending Houston Center
Mon 08:21:11 AM 30.4022 -94.1947 214° Southwest 373 429 15,600 -2,066 Descending Houston Center
Mon 08:21:50 AM 30.3586 -94.2319 216° Southwest 376 433 14,500 -1,967 Descending Houston Center
Mon 08:22:12 AM 30.3128 -94.2694 215° Southwest 371 427 13,600 -1,839 Descending Houston Center
Mon 08:22:52 AM 30.2600 -94.3150 217° Southwest 367 422 12,600 -1,475 Descending Houston Center
Mon 08:23:13 AM 30.2369 -94.3522 234° Southwest 379 436 12,100 -590 Descending Houston Center
Mon 08:23:53 AM 30.2094 -94.4181 244° Southwest 375 432 12,000 -492 Descending Houston Center
Mon 08:24:14 AM 30.1928 -94.4572 244° Southwest 366 421 11,600 -1,082 Descending Houston Center
Mon 08:24:54 AM 30.1664 -94.5183 243° Southwest 367 422 10,900 -1,279 Descending Houston Center
Mon 08:25:15 AM 30.1447 -94.5672 243° Southwest 367 422 10,300 -871 Descending Houston Center
Mon 08:25:56 AM 30.1219 -94.6192 243° Southwest 356 410 10,000 -295 Descending Houston Center
Mon 08:26:16 AM 30.1031 -94.6572 240° Southwest 282 325 10,000 -590 Level Houston Center
Mon 08:26:57 AM 30.0772 -94.6892 227° Southwest 281 323 9,400 -1,279 Descending Houston Center
Mon 08:27:17 AM 30.0481 -94.7200 222° Southwest 278 320 8,700 -1,161 Descending Houston Center
Mon 08:27:59 AM 30.0233 -94.7492 226° Southwest 270 311 8,200 -1,065 Descending Houston Center
Mon 08:28:19 AM 30.0050 -94.7761 232° Southwest 222 255 7,600 -1,180 Descending Houston Center
Mon 08:29:00 AM 29.9956 -94.8258 258° West 225 259 7,000 -500 Descending Houston Center
Mon 08:29:19 AM 29.9933 -94.8500 264° West 226 260 7,100  Climbing Houston Center
Mon 08:30:02 AM 29.9936 -94.8975 270° West 224 258 7,000 -97 Descending Houston Center
Mon 08:30:21 AM 29.9942 -94.9247 271° West 233 268 7,000 -689 Level Houston Center
Mon 08:31:03 AM 29.9931 -94.9686 268° West 222 255 6,300 -1,082 Descending Houston Center
Mon 08:31:22 AM 29.9942 -94.9922 273° West 199 229 5,900 -1,161 Descending Houston Center
Mon 08:32:05 AM 29.9964 -95.0308 274° West 204 235 5,100 -1,377 Descending Houston Center
Mon 08:32:23 AM 29.9942 -95.0597 265° West 206 237 4,500 -1,065 Descending Houston Center
Mon 08:33:07 AM 29.9936 -95.0967 269° West 201 231 4,000 -857 Descending Houston Center
Mon 08:34:08 AM 29.9931 -95.1603 269° West 200 230 3,000 -1,024 Descending Houston Center
Mon 08:35:10 AM 29.9953 -95.2239 272° West 200 230 1,900 -1,065 Descending Houston Center

Login

Don't have an account? Register now (free) for customized features, flight alerts, and more!